Time;durP1;ratioP1;P1;durP2;ratioP2;P2;SDS_P1;SDS_P2;PMS_P1;PMS_P2;Temp;Humidity;BMP_temperature;BMP_pressure;BME280_temperature;BME280_humidity;BME280_pressure;Samples;Min_cycle;Max_cycle;Signal;HPM_P1;HPM_P2
2022/09/04 00:02:05;;;;;;;;;;;;;;;;;;4989077;28;9372;-82
2022/09/04 00:04:37;;;;;;;;;;;;;;;;;;4978386;28;8411;-82
2022/09/04 00:07:10;;;;;;;;;;;;;;;;;;4978782;28;8454;-82
2022/09/04 00:10:00;;;;;;;;;;;;;;;;;;4978368;28;7167;-82
2022/09/04 00:12:30;;;;;;;;;;;;;;;;;;4979296;28;7033;-83
2022/09/04 00:15:02;;;;;;;;;;;;;;;;;;4978388;28;7061;-82
2022/09/04 00:17:40;;;;;;;;;;;;;;;;;;4978458;28;8420;-80
2022/09/04 00:20:12;;;;;;;;;;;;;;;;;;4978075;28;8791;-82
2022/09/04 00:22:57;;;;;;;;;;;;;;;;;;4978649;28;8660;-82
2022/09/04 00:25:28;;;;;;;;;;;;;;;;;;4978223;28;8398;-82
2022/09/04 00:28:03;;;;;;;;;;;;;;;;;;4978011;28;8729;-81
2022/09/04 00:30:31;;;;;;;;;;;;;;;;;;4978336;28;8401;-83
2022/09/04 00:33:07;;;;;;;;;;;;;;;;;;4978340;28;8438;-81
2022/09/04 00:35:37;;;;;;;;;;;;;;;;;;4978560;28;8406;-82
2022/09/04 00:38:08;;;;;;;;;;;;;;;;;;4977793;28;7164;-82
2022/09/04 00:40:40;;;;;;;;;;;;;;;;;;4978532;28;8794;-81
2022/09/04 00:43:25;;;;;;;;;;;;;;;;;;4978574;28;7203;-82
2022/09/04 00:46:12;;;;;;;;;;;;;;;;;;4977983;28;7136;-82
2022/09/04 00:48:56;;;;;;;;;;;;;;;;;;4977820;28;7106;-81
2022/09/04 00:51:24;;;;;;;;;;;;;;;;;;4978058;28;8504;-81
2022/09/04 00:54:00;;;;;;;;;;;;;;;;;;4978016;28;8750;-81
2022/09/04 00:56:35;;;;;;;;;;;;;;;;;;4977946;28;7865;-81
2022/09/04 00:59:00;;;;;;;;;;;;;;;;;;4978076;28;8468;-82
2022/09/04 01:01:26;;;;;;;;;;;;;;;;;;4978127;28;8402;-83
2022/09/04 01:04:11;;;;;;;;;;;;;;;;;;4978614;28;7245;-81
2022/09/04 01:06:54;;;;;;;;;;;;;;;;;;4977379;28;8332;-79
2022/09/04 01:09:39;;;;;;;;;;;;;;;;;;4978104;28;8283;-78
2022/09/04 01:12:24;;;;;;;;;;;;;;;;;;4977968;28;8433;-79
2022/09/04 01:15:01;;;;;;;;;;;;;;;;;;4982149;28;7062;-78
2022/09/04 01:17:39;;;;;;;;;;;;;;;;;;4981594;28;7045;-81
2022/09/04 01:20:13;;;;;;;;;;;;;;;;;;4981331;28;8439;-82
2022/09/04 01:22:43;;;;;;;;;;;;;;;;;;4982490;28;7438;-81
2022/09/04 01:25:28;;;;;;;;;;;;;;;;;;4981661;28;7547;-80
2022/09/04 01:28:20;;;;;;;;;;;;;;;;;;4996829;28;8797;-82
2022/09/04 01:30:57;;;;;;;;;;;;;;;;;;4982236;28;8461;-83
2022/09/04 01:33:43;;;;;;;;;;;;;;;;;;4981547;28;7070;-82
2022/09/04 01:36:28;;;;;;;;;;;;;;;;;;4977416;28;9461;-81
2022/09/04 01:38:58;;;;;;;;;;;;;;;;;;4981126;28;7460;-82
2022/09/04 01:41:39;;;;;;;;;;;;;;;;;;4980783;28;7348;-81
2022/09/04 01:44:08;;;;;;;;;;;;;;;;;;4981078;28;8482;-81
2022/09/04 01:46:33;;;;;;;;;;;;;;;;;;4980358;28;7157;-81
2022/09/04 01:49:06;;;;;;;;;;;;;;;;;;4980765;28;7341;-81
2022/09/04 01:51:32;;;;;;;;;;;;;;;;;;4980182;28;8822;-80
2022/09/04 01:54:14;;;;;;;;;;;;;;;;;;4980274;28;8589;-81
2022/09/04 01:56:50;;;;;;;;;;;;;;;;;;4979974;28;7325;-83
2022/09/04 01:59:18;;;;;;;;;;;;;;;;;;4980303;28;8537;-82
2022/09/04 02:01:53;;;;;;;;;;;;;;;;;;4980029;28;8328;-83
2022/09/04 02:04:24;;;;;;;;;;;;;;;;;;4980371;28;7054;-83
2022/09/04 02:06:59;;;;;;;;;;;;;;;;;;4979405;28;8408;-83
2022/09/04 02:09:35;;;;;;;;;;;;;;;;;;4980138;28;8801;-82
2022/09/04 02:12:12;;;;;;;;;;;;;;;;;;4979346;28;7248;-81
2022/09/04 02:14:39;;;;;;;;;;;;;;;;;;4979881;28;8731;-83
2022/09/04 02:17:17;;;;;;;;;;;;;;;;;;4981360;28;7622;-82
2022/09/04 02:19:47;;;;;;;;;;;;;;;;;;4976301;28;7453;-83
2022/09/04 02:22:13;;;;;;;;;;;;;;;;;;5219594;23;7505;-82
2022/09/04 02:25:05;;;;;;;;;;;;;;;;;;5051834;28;7073;-83
2022/09/04 02:27:33;;;;;;;;;;;;;;;;;;5036209;28;6999;-84
2022/09/04 02:30:03;;;;;;;;;;;;;;;;;;5053863;28;8391;-84
2022/09/04 02:32:29;;;;;;;;;;;;;;;;;;5035947;28;7239;-86
2022/09/04 02:35:04;;;;;;;;;;;;;;;;;;5052977;28;7442;-84
2022/09/04 02:37:39;;;;;;;;;;;;;;;;;;5052269;28;7029;-85
2022/09/04 02:40:19;;;;;;;;;;;;;;;;;;5052162;28;8538;-85
2022/09/04 02:43:03;;;;;;;;;;;;;;;;;;5036492;28;7408;-84
2022/09/04 02:45:47;;;;;;;;;;;;;;;;;;5035671;28;8443;-84
2022/09/04 02:48:13;;;;;;;;;;;;;;;;;;5051771;28;7068;-85
2022/09/04 02:50:57;;;;;;;;;;;;;;;;;;5051794;28;7309;-84
2022/09/04 02:53:52;;;;;;;;;;;;;;;;;;5036555;28;7011;-84
2022/09/04 02:56:36;;;;;;;;;;;;;;;;;;5039065;28;7150;-84
2022/09/04 02:59:05;;;;;;;;;;;;;;;;;;5035426;28;8549;-85
2022/09/04 03:01:43;;;;;;;;;;;;;;;;;;5052197;28;7056;-85
2022/09/04 03:04:24;;;;;;;;;;;;;;;;;;5051820;28;7039;-86
2022/09/04 03:07:06;;;;;;;;;;;;;;;;;;5051503;28;7348;-85
2022/09/04 03:09:46;;;;;;;;;;;;;;;;;;5035315;28;8366;-84
2022/09/04 03:12:30;;;;;;;;;;;;;;;;;;5035345;28;8341;-85
2022/09/04 03:15:05;;;;;;;;;;;;;;;;;;5035822;28;8691;-84
2022/09/04 03:17:44;;;;;;;;;;;;;;;;;;5035370;28;6834;-84
2022/09/04 03:20:20;;;;;;;;;;;;;;;;;;5051519;28;7057;-84
2022/09/04 03:23:09;;;;;;;;;;;;;;;;;;5035280;28;7247;-85
2022/09/04 03:25:37;;;;;;;;;;;;;;;;;;5043069;28;7052;-85
2022/09/04 03:28:04;;;;;;;;;;;;;;;;;;5050949;28;8428;-84
2022/09/04 03:30:35;;;;;;;;;;;;;;;;;;5034750;28;8413;-85
2022/09/04 03:33:17;;;;;;;;;;;;;;;;;;5035143;28;7157;-85
2022/09/04 03:35:42;;;;;;;;;;;;;;;;;;5034786;28;8509;-85
2022/09/04 03:38:32;;;;;;;;;;;;;;;;;;5051250;28;8960;-84
2022/09/04 03:41:16;;;;;;;;;;;;;;;;;;5034554;28;7203;-85
2022/09/04 03:43:54;;;;;;;;;;;;;;;;;;5034274;28;8422;-84
2022/09/04 03:46:40;;;;;;;;;;;;;;;;;;5050736;28;7168;-85
2022/09/04 03:49:05;;;;;;;;;;;;;;;;;;5034546;28;8427;-84
2022/09/04 03:51:49;;;;;;;;;;;;;;;;;;5051371;28;7038;-84
2022/09/04 03:54:22;;;;;;;;;;;;;;;;;;5034174;28;7517;-85
2022/09/04 03:56:51;;;;;;;;;;;;;;;;;;5050951;28;7051;-84
2022/09/04 03:59:35;;;;;;;;;;;;;;;;;;5050530;28;7398;-84
2022/09/04 04:02:33;;;;;;;;;;;;;;;;;;5034019;28;7775;-86
2022/09/04 04:05:15;;;;;;;;;;;;;;;;;;5017819;28;8725;-84
2022/09/04 04:07:47;;;;;;;;;;;;;;;;;;5034822;28;7036;-85
2022/09/04 04:10:29;;;;;;;;;;;;;;;;;;5050331;28;7235;-84
2022/09/04 04:12:58;;;;;;;;;;;;;;;;;;5034495;28;7093;-84
2022/09/04 04:15:38;;;;;;;;;;;;;;;;;;5050568;28;9104;-85
2022/09/04 04:18:15;;;;;;;;;;;;;;;;;;5033693;28;7397;-84
2022/09/04 04:20:51;;;;;;;;;;;;;;;;;;5050179;28;8475;-85
2022/09/04 04:23:35;;;;;;;;;;;;;;;;;;5050984;28;7044;-84
2022/09/04 04:26:20;;;;;;;;;;;;;;;;;;5033774;28;8500;-82
2022/09/04 04:28:58;;;;;;;;;;;;;;;;;;5034718;28;9080;-85
2022/09/04 04:31:33;;;;;;;;;;;;;;;;;;5050180;28;7204;-82
2022/09/04 04:34:09;;;;;;;;;;;;;;;;;;5051029;28;7384;-84
2022/09/04 04:36:35;;;;;;;;;;;;;;;;;;5034226;28;7154;-85
2022/09/04 04:39:11;;;;;;;;;;;;;;;;;;5050576;28;8410;-85
2022/09/04 04:42:03;;;;;;;;;;;;;;;;;;5033755;28;8325;-87
2022/09/04 04:47:42;;;;;;;;;;;;;;;;;;5035049;28;6811;-84
2022/09/04 04:50:20;;;;;;;;;;;;;;;;;;5044751;28;9175;-84
2022/09/04 04:52:48;;;;;;;;;;;;;;;;;;5037408;28;7164;-85
2022/09/04 04:55:38;;;;;;;;;;;;;;;;;;5054193;28;8430;-85
2022/09/04 04:58:10;;;;;;;;;;;;;;;;;;5037927;28;8589;-84
2022/09/04 05:00:44;;;;;;;;;;;;;;;;;;5054261;28;7193;-84
2022/09/04 05:03:31;;;;;;;;;;;;;;;;;;5053875;28;8294;-83
2022/09/04 05:06:05;;;;;;;;;;;;;;;;;;5038011;28;7441;-84
2022/09/04 05:08:37;;;;;;;;;;;;;;;;;;5037476;28;7218;-85
2022/09/04 05:11:03;;;;;;;;;;;;;;;;;;5053676;28;8270;-85
2022/09/04 05:13:47;;;;;;;;;;;;;;;;;;5054630;28;8364;-84
2022/09/04 05:16:31;;;;;;;;;;;;;;;;;;5036971;28;8893;-85
2022/09/04 05:19:15;;;;;;;;;;;;;;;;;;5036976;28;8326;-84
2022/09/04 05:21:59;;;;;;;;;;;;;;;;;;5036833;28;7024;-85
2022/09/04 05:24:41;;;;;;;;;;;;;;;;;;5027307;28;8438;-83
2022/09/04 05:27:16;;;;;;;;;;;;;;;;;;5043290;28;8437;-83
2022/09/04 05:29:50;;;;;;;;;;;;;;;;;;5045428;28;7162;-84
2022/09/04 05:32:28;;;;;;;;;;;;;;;;;;5044236;28;7299;-84
2022/09/04 05:34:54;;;;;;;;;;;;;;;;;;5047788;28;7052;-84
2022/09/04 05:37:28;;;;;;;;;;;;;;;;;;5036931;28;6825;-83
2022/09/04 05:40:10;;;;;;;;;;;;;;;;;;5037241;28;8337;-83
2022/09/04 05:42:46;;;;;;;;;;;;;;;;;;5036671;28;8752;-84
2022/09/04 05:45:31;;;;;;;;;;;;;;;;;;5036811;28;8403;-85
2022/09/04 05:48:16;;;;;;;;;;;;;;;;;;5036972;28;7260;-85
2022/09/04 05:50:45;;;;;;;;;;;;;;;;;;5035833;28;7400;-85
2022/09/04 05:53:19;;;;;;;;;;;;;;;;;;5036340;28;7179;-85
2022/09/04 05:55:51;;;;;;;;;;;;;;;;;;5036100;28;7023;-85
2022/09/04 05:58:19;;;;;;;;;;;;;;;;;;5036535;28;8420;-85
2022/09/04 06:00:59;;;;;;;;;;;;;;;;;;5036176;28;8320;-84
2022/09/04 06:03:27;;;;;;;;;;;;;;;;;;5036489;28;8334;-84
2022/09/04 06:06:03;;;;;;;;;;;;;;;;;;5036073;28;7255;-85
2022/09/04 06:08:40;;;;;;;;;;;;;;;;;;5036804;28;8526;-85
2022/09/04 06:11:24;;;;;;;;;;;;;;;;;;5036557;28;7373;-84
2022/09/04 06:14:19;;;;;;;;;;;;;;;;;;5035865;28;7059;-84
2022/09/04 06:16:44;;;;;;;;;;;;;;;;;;5036025;28;6986;-84
2022/09/04 06:19:22;;;;;;;;;;;;;;;;;;5036275;28;8461;-85
2022/09/04 06:22:06;;;;;;;;;;;;;;;;;;5035687;28;8337;-84
2022/09/04 06:24:34;;;;;;;;;;;;;;;;;;5036067;28;7116;-84
2022/09/04 06:27:00;;;;;;;;;;;;;;;;;;5035629;28;8659;-83
2022/09/04 06:29:41;;;;;;;;;;;;;;;;;;5035978;28;8395;-82
2022/09/04 06:32:16;;;;;;;;;;;;;;;;;;5035915;28;8658;-83
2022/09/04 06:35:03;;;;;;;;;;;;;;;;;;5034703;28;7168;-82
2022/09/04 06:37:46;;;;;;;;;;;;;;;;;;5034949;28;8305;-83
2022/09/04 06:40:12;;;;;;;;;;;;;;;;;;5034646;28;7178;-83
2022/09/04 06:42:57;;;;;;;;;;;;;;;;;;5035523;28;8539;-83
2022/09/04 06:45:25;;;;;;;;;;;;;;;;;;5035142;28;7129;-84
2022/09/04 06:48:01;;;;;;;;;;;;;;;;;;5035493;28;8502;-85
2022/09/04 06:50:52;;;;;;;;;;;;;;;;;;5035346;28;8402;-83
2022/09/04 06:53:41;;;;;;;;;;;;;;;;;;5035365;28;7043;-83
2022/09/04 06:56:06;;;;;;;;;;;;;;;;;;5034960;28;9135;-84
2022/09/04 06:58:44;;;;;;;;;;;;;;;;;;5035280;28;7264;-84
2022/09/04 07:01:35;;;;;;;;;;;;;;;;;;5035346;28;8620;-84
2022/09/04 07:04:19;;;;;;;;;;;;;;;;;;5028427;28;8835;-85
2022/09/04 07:06:45;;;;;;;;;;;;;;;;;;5034809;28;8448;-84
2022/09/04 07:09:14;;;;;;;;;;;;;;;;;;5034927;28;8484;-85
2022/09/04 07:11:42;;;;;;;;;;;;;;;;;;5034061;28;7218;-84
2022/09/04 07:14:18;;;;;;;;;;;;;;;;;;5034709;28;8476;-84
2022/09/04 07:16:55;;;;;;;;;;;;;;;;;;5034905;28;8495;-85
2022/09/04 07:19:39;;;;;;;;;;;;;;;;;;5034706;28;8725;-84
2022/09/04 07:22:07;;;;;;;;;;;;;;;;;;5034181;28;7269;-84
2022/09/04 07:24:55;;;;;;;;;;;;;;;;;;5034888;28;7204;-82
2022/09/04 07:27:36;;;;;;;;;;;;;;;;;;5034547;28;9229;-84
2022/09/04 07:30:06;;;;;;;;;;;;;;;;;;5034513;28;7201;-84
2022/09/04 07:32:50;;;;;;;;;;;;;;;;;;5035068;28;8506;-84
2022/09/04 07:35:21;;;;;;;;;;;;;;;;;;5034309;28;7071;-83
2022/09/04 07:37:47;;;;;;;;;;;;;;;;;;5034502;28;7200;-83
2022/09/04 07:40:12;;;;;;;;;;;;;;;;;;5034672;28;8517;-84
2022/09/04 07:42:44;;;;;;;;;;;;;;;;;;5034238;28;7448;-84
2022/09/04 07:45:36;;;;;;;;;;;;;;;;;;5034392;28;8900;-83
2022/09/04 07:48:02;;;;;;;;;;;;;;;;;;5030997;28;8627;-84
2022/09/04 07:50:34;;;;;;;;;;;;;;;;;;5034961;28;8441;-86
2022/09/04 07:53:02;;;;;;;;;;;;;;;;;;5034445;28;7044;-88
2022/09/04 07:55:30;;;;;;;;;;;;;;;;;;5034333;28;8605;-89
2022/09/04 07:58:11;;;;;;;;;;;;;;;;;;5033956;28;7315;-89
2022/09/04 08:00:50;;;;;;;;;;;;;;;;;;5034335;28;8456;-85
2022/09/04 08:03:28;;;;;;;;;;;;;;;;;;5034697;28;7183;-82
2022/09/04 08:06:04;;;;;;;;;;;;;;;;;;5033887;28;7427;-84
2022/09/04 08:08:49;;;;;;;;;;;;;;;;;;5034024;28;7189;-83
2022/09/04 08:11:24;;;;;;;;;;;;;;;;;;5033948;28;8826;-83
2022/09/04 08:14:08;;;;;;;;;;;;;;;;;;5034019;28;8437;-82
2022/09/04 08:16:34;;;;;;;;;;;;;;;;;;5033937;28;7187;-83
2022/09/04 08:19:05;;;;;;;;;;;;;;;;;;5033606;28;8727;-83
2022/09/04 08:21:42;;;;;;;;;;;;;;;;;;5033566;28;8485;-82
2022/09/04 08:24:08;;;;;;;;;;;;;;;;;;5033023;28;8500;-84
2022/09/04 08:26:53;;;;;;;;;;;;;;;;;;5033541;28;7175;-84
2022/09/04 08:29:41;;;;;;;;;;;;;;;;;;5033278;28;8473;-83
2022/09/04 08:32:08;;;;;;;;;;;;;;;;;;5033579;28;8925;-84
2022/09/04 08:34:42;;;;;;;;;;;;;;;;;;5033649;28;7070;-83
2022/09/04 08:37:08;;;;;;;;;;;;;;;;;;5033475;28;8347;-84
2022/09/04 08:39:39;;;;;;;;;;;;;;;;;;5033666;28;7182;-84
2022/09/04 08:42:14;;;;;;;;;;;;;;;;;;5033446;28;8616;-84
2022/09/04 08:45:03;;;;;;;;;;;;;;;;;;5033579;28;8629;-82
2022/09/04 08:48:02;;;;;;;;;;;;;;;;;;5025676;28;8768;-83
2022/09/04 08:50:37;;;;;;;;;;;;;;;;;;5033502;28;8453;-84
2022/09/04 08:53:05;;;;;;;;;;;;;;;;;;5033273;28;8641;-85
2022/09/04 08:55:45;;;;;;;;;;;;;;;;;;5033017;28;8538;-83
2022/09/04 08:58:30;;;;;;;;;;;;;;;;;;5033216;28;8895;-83
2022/09/04 09:01:13;;;;;;;;;;;;;;;;;;5033135;28;8480;-82
2022/09/04 09:03:58;;;;;;;;;;;;;;;;;;5032745;28;7249;-83
2022/09/04 09:06:43;;;;;;;;;;;;;;;;;;5033224;28;8856;-82
2022/09/04 09:09:35;;;;;;;;;;;;;;;;;;5033319;28;7198;-82
2022/09/04 09:12:07;;;;;;;;;;;;;;;;;;5032084;28;8490;-83
2022/09/04 09:14:40;;;;;;;;;;;;;;;;;;5032228;28;7444;-81
2022/09/04 09:17:26;;;;;;;;;;;;;;;;;;5033807;28;9074;-81
2022/09/04 09:20:16;;;;;;;;;;;;;;;;;;5033091;28;8429;-82
2022/09/04 09:23:01;;;;;;;;;;;;;;;;;;5033065;28;8567;-84
2022/09/04 09:25:41;;;;;;;;;;;;;;;;;;5031931;28;7080;-85
2022/09/04 09:28:16;;;;;;;;;;;;;;;;;;5032631;28;7786;-82
2022/09/04 09:30:57;;;;;;;;;;;;;;;;;;5034438;28;8742;-85
2022/09/04 09:33:35;;;;;;;;;;;;;;;;;;5032398;28;8487;-86
2022/09/04 09:36:19;;;;;;;;;;;;;;;;;;5037499;28;8461;-82
2022/09/04 09:38:48;;;;;;;;;;;;;;;;;;5036845;28;8639;-85
2022/09/04 09:41:22;;;;;;;;;;;;;;;;;;5036671;28;8497;-86
2022/09/04 09:43:51;;;;;;;;;;;;;;;;;;5032239;28;7270;-83
2022/09/04 09:46:30;;;;;;;;;;;;;;;;;;5026793;28;7239;-84
2022/09/04 09:48:58;;;;;;;;;;;;;;;;;;5029784;28;8523;-84
2022/09/04 09:51:27;;;;;;;;;;;;;;;;;;5044398;28;8548;-84
2022/09/04 09:53:52;;;;;;;;;;;;;;;;;;5042572;28;8505;-83
2022/09/04 09:56:21;;;;;;;;;;;;;;;;;;5044498;28;7291;-88
2022/09/04 09:58:52;;;;;;;;;;;;;;;;;;5044615;28;8634;-83
2022/09/04 10:01:24;;;;;;;;;;;;;;;;;;5044382;28;8593;-84
2022/09/04 10:04:14;;;;;;;;;;;;;;;;;;5038667;28;7185;-84
2022/09/04 10:07:14;;;;;;;;;;;;;;;;;;5036002;28;7573;-84
2022/09/04 10:09:58;;;;;;;;;;;;;;;;;;5053098;28;7211;-84
2022/09/04 10:12:24;;;;;;;;;;;;;;;;;;5028823;28;8808;-84
2022/09/04 10:14:55;;;;;;;;;;;;;;;;;;5021697;28;7239;-84
2022/09/04 10:17:40;;;;;;;;;;;;;;;;;;5039388;28;8440;-84
2022/09/04 10:20:20;;;;;;;;;;;;;;;;;;5018037;28;8499;-85
2022/09/04 10:23:04;;;;;;;;;;;;;;;;;;5016157;28;8510;-84
2022/09/04 10:25:35;;;;;;;;;;;;;;;;;;5021890;28;8792;-86
2022/09/04 10:28:04;;;;;;;;;;;;;;;;;;5027741;28;8472;-86
2022/09/04 10:30:35;;;;;;;;;;;;;;;;;;5035455;28;8489;-86
2022/09/04 10:33:20;;;;;;;;;;;;;;;;;;5020178;28;8734;-85
2022/09/04 10:35:48;;;;;;;;;;;;;;;;;;5015845;28;9019;-85
2022/09/04 10:38:29;;;;;;;;;;;;;;;;;;5015624;28;7086;-85
2022/09/04 10:41:19;;;;;;;;;;;;;;;;;;5020155;28;7562;-86
2022/09/04 10:44:05;;;;;;;;;;;;;;;;;;5052646;28;8484;-86
2022/09/04 10:46:47;;;;;;;;;;;;;;;;;;5051258;28;7109;-85
2022/09/04 10:49:14;;;;;;;;;;;;;;;;;;5052263;28;8546;-85
2022/09/04 10:51:42;;;;;;;;;;;;;;;;;;5035436;28;7423;-86
2022/09/04 10:54:37;;;;;;;;;;;;;;;;;;5033550;28;8828;-85
2022/09/04 10:57:02;;;;;;;;;;;;;;;;;;5052259;28;8786;-86
2022/09/04 10:59:34;;;;;;;;;;;;;;;;;;5026248;28;9304;-85
2022/09/04 11:02:11;;;;;;;;;;;;;;;;;;5035205;28;8866;-86
2022/09/04 11:04:44;;;;;;;;;;;;;;;;;;5034853;28;8349;-86
2022/09/04 11:07:25;;;;;;;;;;;;;;;;;;5034868;28;7215;-86
2022/09/04 11:10:08;;;;;;;;;;;;;;;;;;5051461;28;7246;-86
2022/09/04 11:12:40;;;;;;;;;;;;;;;;;;5052101;28;8550;-85
2022/09/04 11:15:24;;;;;;;;;;;;;;;;;;5034944;28;7074;-87
2022/09/04 11:18:01;;;;;;;;;;;;;;;;;;5034777;28;8406;-85
2022/09/04 11:20:39;;;;;;;;;;;;;;;;;;5051184;28;8487;-84
2022/09/04 11:23:14;;;;;;;;;;;;;;;;;;5034819;28;8472;-86
2022/09/04 11:26:04;;;;;;;;;;;;;;;;;;5034759;28;8498;-85
2022/09/04 11:28:43;;;;;;;;;;;;;;;;;;5034792;28;8557;-83
2022/09/04 11:31:27;;;;;;;;;;;;;;;;;;5051469;28;8479;-83
2022/09/04 11:34:12;;;;;;;;;;;;;;;;;;5034737;28;8441;-83
2022/09/04 11:36:39;;;;;;;;;;;;;;;;;;5034430;28;8452;-84
2022/09/04 11:39:10;;;;;;;;;;;;;;;;;;5034639;28;9241;-83
2022/09/04 11:41:55;;;;;;;;;;;;;;;;;;5034153;28;8649;-84
2022/09/04 11:44:33;;;;;;;;;;;;;;;;;;5033903;28;8363;-84
2022/09/04 11:47:28;;;;;;;;;;;;;;;;;;5033954;28;8465;-84
2022/09/04 11:50:08;;;;;;;;;;;;;;;;;;5016910;28;8732;-83
2022/09/04 11:52:33;;;;;;;;;;;;;;;;;;5051076;28;8531;-84
2022/09/04 11:55:12;;;;;;;;;;;;;;;;;;5034129;28;8368;-84
2022/09/04 11:57:48;;;;;;;;;;;;;;;;;;5051325;28;7216;-84
2022/09/04 12:00:15;;;;;;;;;;;;;;;;;;5050630;28;8518;-85
2022/09/04 12:03:02;;;;;;;;;;;;;;;;;;5050712;28;7252;-86
2022/09/04 12:05:40;;;;;;;;;;;;;;;;;;5020153;28;8675;-85
2022/09/04 12:08:21;;;;;;;;;;;;;;;;;;5034504;28;8783;-85
2022/09/04 12:11:05;;;;;;;;;;;;;;;;;;5033791;28;7251;-85
2022/09/04 12:13:46;;;;;;;;;;;;;;;;;;5051318;28;7251;-87
2022/09/04 12:16:31;;;;;;;;;;;;;;;;;;5033597;28;8546;-85
2022/09/04 12:19:15;;;;;;;;;;;;;;;;;;5033716;28;8748;-85
2022/09/04 12:21:52;;;;;;;;;;;;;;;;;;5050463;28;8758;-85
2022/09/04 12:24:42;;;;;;;;;;;;;;;;;;5034097;28;8734;-85
2022/09/04 12:27:17;;;;;;;;;;;;;;;;;;5050164;28;8704;-85
2022/09/04 12:29:49;;;;;;;;;;;;;;;;;;5033676;28;8453;-85
2022/09/04 12:32:15;;;;;;;;;;;;;;;;;;5033605;28;8877;-85
2022/09/04 12:34:40;;;;;;;;;;;;;;;;;;5033600;28;8783;-85
2022/09/04 12:37:06;;;;;;;;;;;;;;;;;;5033494;28;8765;-85
2022/09/04 12:39:50;;;;;;;;;;;;;;;;;;5033522;28;8476;-85
2022/09/04 12:42:27;;;;;;;;;;;;;;;;;;5033586;28;7247;-85
2022/09/04 12:45:02;;;;;;;;;;;;;;;;;;5050291;28;8392;-85
2022/09/04 12:47:27;;;;;;;;;;;;;;;;;;5033454;28;8725;-85
2022/09/04 12:50:13;;;;;;;;;;;;;;;;;;5033274;28;7126;-85
2022/09/04 12:52:49;;;;;;;;;;;;;;;;;;5049944;28;8856;-84
2022/09/04 12:55:24;;;;;;;;;;;;;;;;;;5050420;28;8956;-86
2022/09/04 12:57:54;;;;;;;;;;;;;;;;;;5049957;28;7251;-85
2022/09/04 13:00:22;;;;;;;;;;;;;;;;;;5033561;28;7111;-85
2022/09/04 13:02:51;;;;;;;;;;;;;;;;;;5049852;28;7490;-84
2022/09/04 13:05:25;;;;;;;;;;;;;;;;;;5033544;28;8681;-85
2022/09/04 13:07:57;;;;;;;;;;;;;;;;;;5033125;28;8477;-85
2022/09/04 13:10:32;;;;;;;;;;;;;;;;;;5036396;28;7256;-85
2022/09/04 13:13:22;;;;;;;;;;;;;;;;;;5053726;28;7133;-85
2022/09/04 13:16:07;;;;;;;;;;;;;;;;;;5053791;28;8614;-85
2022/09/04 13:18:46;;;;;;;;;;;;;;;;;;5054103;28;8514;-85
2022/09/04 13:21:33;;;;;;;;;;;;;;;;;;5053364;28;7349;-86
2022/09/04 13:24:13;;;;;;;;;;;;;;;;;;5022641;28;8915;-85
2022/09/04 13:26:51;;;;;;;;;;;;;;;;;;5053667;28;8794;-86
2022/09/04 13:29:35;;;;;;;;;;;;;;;;;;5053941;28;7352;-84
2022/09/04 13:32:03;;;;;;;;;;;;;;;;;;5036703;28;7139;-84
2022/09/04 13:34:34;;;;;;;;;;;;;;;;;;5036545;28;8653;-84
2022/09/04 13:37:09;;;;;;;;;;;;;;;;;;5036385;28;9211;-84
2022/09/04 13:39:54;;;;;;;;;;;;;;;;;;5037445;28;7127;-85
2022/09/04 13:42:20;;;;;;;;;;;;;;;;;;5036532;28;7867;-85
2022/09/04 13:44:56;;;;;;;;;;;;;;;;;;5037255;28;8536;-85
2022/09/04 13:47:23;;;;;;;;;;;;;;;;;;5053182;28;8528;-84
2022/09/04 13:50:08;;;;;;;;;;;;;;;;;;5053341;28;8603;-84
2022/09/04 13:52:45;;;;;;;;;;;;;;;;;;5053174;28;7889;-85
2022/09/04 13:55:21;;;;;;;;;;;;;;;;;;5052823;28;8821;-85
2022/09/04 13:57:56;;;;;;;;;;;;;;;;;;5052558;28;7942;-85
2022/09/04 14:00:22;;;;;;;;;;;;;;;;;;5052376;28;8845;-84
2022/09/04 14:02:54;;;;;;;;;;;;;;;;;;5052701;28;8732;-85
2022/09/04 14:05:24;;;;;;;;;;;;;;;;;;5052246;28;7320;-87
2022/09/04 14:07:57;;;;;;;;;;;;;;;;;;5052409;28;8911;-86
2022/09/04 14:10:44;;;;;;;;;;;;;;;;;;5052826;28;7256;-86
2022/09/04 14:13:21;;;;;;;;;;;;;;;;;;5035881;28;7270;-87
2022/09/04 14:16:10;;;;;;;;;;;;;;;;;;5052559;28;8439;-85
2022/09/04 14:18:47;;;;;;;;;;;;;;;;;;5052479;28;8795;-86
2022/09/04 14:21:46;;;;;;;;;;;;;;;;;;5035671;28;8809;-84
2022/09/04 14:24:31;;;;;;;;;;;;;;;;;;4973301;28;7140;-85
2022/09/04 14:27:17;;;;;;;;;;;;;;;;;;5015230;28;7131;-86
2022/09/04 14:30:13;;;;;;;;;;;;;;;;;;5016035;28;8555;-85
2022/09/04 14:32:49;;;;;;;;;;;;;;;;;;4998165;28;7258;-86
2022/09/04 14:35:30;;;;;;;;;;;;;;;;;;5015833;28;7288;-86
2022/09/04 14:37:55;;;;;;;;;;;;;;;;;;5015614;28;8592;-85
2022/09/04 14:40:29;;;;;;;;;;;;;;;;;;5015792;28;8510;-86
2022/09/04 14:42:57;;;;;;;;;;;;;;;;;;5016040;28;6962;-86
2022/09/04 14:45:29;;;;;;;;;;;;;;;;;;5015703;28;8677;-85
2022/09/04 14:48:02;;;;;;;;;;;;;;;;;;5015937;28;8890;-85
2022/09/04 14:50:32;;;;;;;;;;;;;;;;;;5015496;28;9138;-85
2022/09/04 14:53:04;;;;;;;;;;;;;;;;;;5015434;28;9038;-85
2022/09/04 14:55:31;;;;;;;;;;;;;;;;;;5016667;28;8559;-84
2022/09/04 14:58:03;;;;;;;;;;;;;;;;;;5015295;28;8599;-85
2022/09/04 15:00:33;;;;;;;;;;;;;;;;;;5015721;28;7155;-85
2022/09/04 15:03:14;;;;;;;;;;;;;;;;;;5015187;28;8976;-85
2022/09/04 15:05:56;;;;;;;;;;;;;;;;;;5014962;28;9051;-84
2022/09/04 15:08:31;;;;;;;;;;;;;;;;;;5015340;28;7085;-84
2022/09/04 15:11:07;;;;;;;;;;;;;;;;;;5014687;28;7250;-85
2022/09/04 15:13:32;;;;;;;;;;;;;;;;;;5015607;28;8694;-85
2022/09/04 15:16:18;;;;;;;;;;;;;;;;;;5015050;28;8832;-84
2022/09/04 15:18:49;;;;;;;;;;;;;;;;;;5015065;28;7140;-85
2022/09/04 15:21:26;;;;;;;;;;;;;;;;;;5014406;28;7260;-84
2022/09/04 15:24:01;;;;;;;;;;;;;;;;;;5014784;28;7101;-84
2022/09/04 15:26:33;;;;;;;;;;;;;;;;;;5014698;28;7545;-84
2022/09/04 15:29:22;;;;;;;;;;;;;;;;;;5015758;28;7133;-85
2022/09/04 15:31:58;;;;;;;;;;;;;;;;;;4995534;28;9562;-85
2022/09/04 15:34:25;;;;;;;;;;;;;;;;;;5014705;28;8898;-85
2022/09/04 15:36:52;;;;;;;;;;;;;;;;;;5014567;28;8839;-84
2022/09/04 15:39:26;;;;;;;;;;;;;;;;;;5014616;28;8585;-85
2022/09/04 15:41:52;;;;;;;;;;;;;;;;;;5013426;28;8451;-85
2022/09/04 15:44:36;;;;;;;;;;;;;;;;;;5014185;28;8582;-85
2022/09/04 15:47:24;;;;;;;;;;;;;;;;;;5013879;28;8649;-86
2022/09/04 15:49:53;;;;;;;;;;;;;;;;;;5014904;28;8618;-86
2022/09/04 15:52:36;;;;;;;;;;;;;;;;;;5014404;28;8499;-86
2022/09/04 15:55:05;;;;;;;;;;;;;;;;;;5014166;28;8771;-85
2022/09/04 15:57:57;;;;;;;;;;;;;;;;;;5031158;28;8718;-84
2022/09/04 16:00:26;;;;;;;;;;;;;;;;;;5014262;28;8875;-85
2022/09/04 16:02:53;;;;;;;;;;;;;;;;;;5014277;28;9170;-84
2022/09/04 16:05:23;;;;;;;;;;;;;;;;;;5030392;28;7592;-84
2022/09/04 16:07:49;;;;;;;;;;;;;;;;;;5013777;28;8947;-84
2022/09/04 16:10:23;;;;;;;;;;;;;;;;;;5030613;28;8552;-86
2022/09/04 16:13:03;;;;;;;;;;;;;;;;;;5014229;28;9294;-86
2022/09/04 16:15:33;;;;;;;;;;;;;;;;;;5013999;28;7250;-87
2022/09/04 16:18:02;;;;;;;;;;;;;;;;;;5014525;28;7271;-88
2022/09/04 16:20:27;;;;;;;;;;;;;;;;;;5014084;28;8509;-86
2022/09/04 16:22:59;;;;;;;;;;;;;;;;;;5030609;28;8471;-86
2022/09/04 16:25:34;;;;;;;;;;;;;;;;;;5013833;28;7507;-86
2022/09/04 16:28:01;;;;;;;;;;;;;;;;;;5013854;28;8395;-86
2022/09/04 16:30:32;;;;;;;;;;;;;;;;;;5030352;28;8532;-87
2022/09/04 16:32:58;;;;;;;;;;;;;;;;;;5030192;28;8678;-86
2022/09/04 16:35:28;;;;;;;;;;;;;;;;;;5013922;28;8520;-84
2022/09/04 16:38:04;;;;;;;;;;;;;;;;;;5013588;28;8529;-84
2022/09/04 16:40:39;;;;;;;;;;;;;;;;;;5013906;28;8476;-84
2022/09/04 16:43:28;;;;;;;;;;;;;;;;;;5030593;28;8884;-86
2022/09/04 16:46:26;;;;;;;;;;;;;;;;;;5017388;28;8807;-84
2022/09/04 16:48:58;;;;;;;;;;;;;;;;;;4985151;28;8787;-85
2022/09/04 16:51:30;;;;;;;;;;;;;;;;;;5018625;28;8494;-85
2022/09/04 16:54:12;;;;;;;;;;;;;;;;;;5017039;28;8509;-85
2022/09/04 16:56:42;;;;;;;;;;;;;;;;;;5017297;28;7151;-85
2022/09/04 16:59:17;;;;;;;;;;;;;;;;;;5017993;28;7121;-85
2022/09/04 17:01:42;;;;;;;;;;;;;;;;;;5017567;28;8835;-85
2022/09/04 17:04:11;;;;;;;;;;;;;;;;;;5034126;28;7103;-85
2022/09/04 17:06:42;;;;;;;;;;;;;;;;;;5033748;28;8945;-85
2022/09/04 17:09:16;;;;;;;;;;;;;;;;;;5033860;28;8538;-86
2022/09/04 17:11:50;;;;;;;;;;;;;;;;;;5017414;28;7351;-86
2022/09/04 17:14:33;;;;;;;;;;;;;;;;;;5018335;28;7347;-87
2022/09/04 17:17:12;;;;;;;;;;;;;;;;;;5017757;28;7330;-86
2022/09/04 17:19:39;;;;;;;;;;;;;;;;;;5017282;28;6899;-84
2022/09/04 17:22:33;;;;;;;;;;;;;;;;;;5016581;28;8607;-85
2022/09/04 17:24:59;;;;;;;;;;;;;;;;;;5017220;28;8960;-86
2022/09/04 17:27:35;;;;;;;;;;;;;;;;;;5033782;28;7110;-85
2022/09/04 17:30:04;;;;;;;;;;;;;;;;;;5017009;28;8917;-85
2022/09/04 17:32:39;;;;;;;;;;;;;;;;;;5016903;28;8539;-85
2022/09/04 17:35:13;;;;;;;;;;;;;;;;;;5017243;28;8476;-85
2022/09/04 17:37:50;;;;;;;;;;;;;;;;;;5017220;28;8408;-85
2022/09/04 17:40:25;;;;;;;;;;;;;;;;;;5017746;28;7542;-85
2022/09/04 17:43:26;;;;;;;;;;;;;;;;;;5017304;28;8905;-88
2022/09/04 17:45:58;;;;;;;;;;;;;;;;;;4961177;28;8550;-84
2022/09/04 17:48:37;;;;;;;;;;;;;;;;;;5010606;28;7119;-85
2022/09/04 17:51:06;;;;;;;;;;;;;;;;;;5016691;28;7437;-85
2022/09/04 17:53:45;;;;;;;;;;;;;;;;;;5016637;28;8937;-85
2022/09/04 17:56:18;;;;;;;;;;;;;;;;;;5016498;28;9042;-85
2022/09/04 17:58:46;;;;;;;;;;;;;;;;;;5016660;28;7109;-85
2022/09/04 18:01:27;;;;;;;;;;;;;;;;;;5033375;28;8458;-85
2022/09/04 18:04:04;;;;;;;;;;;;;;;;;;5016971;28;8538;-85
2022/09/04 18:06:38;;;;;;;;;;;;;;;;;;5033201;28;8450;-85
2022/09/04 18:09:11;;;;;;;;;;;;;;;;;;5016354;28;8482;-85
2022/09/04 18:11:46;;;;;;;;;;;;;;;;;;5016284;28;8467;-85